Time,TemperatureF,DewpointF,PressureIn,WindDirection,WindDirectionDegrees,WindSpeedMPH,WindSpeedGustMPH,Humidity,HourlyPrecipIn,Conditions,Clouds,dailyrainin,SoftwareType,DateUTC
2013-07-10 00:04:00,55.8,52.3,30.02,SSW,209,6.0,8.0,88,0.00,,,0.00,WeatherCatV1.12B45,2013-07-10 07:04:00,
2013-07-10 00:09:00,55.0,52.1,30.02,West,272,6.0,6.0,90,0.00,,,0.00,WeatherCatV1.12B45,2013-07-10 07:09:00,
2013-07-10 00:14:00,54.9,52.0,30.02,West,267,4.0,10.0,90,0.00,,,0.00,WeatherCatV1.12B45,2013-07-10 07:14:00,
2013-07-10 00:19:00,54.7,51.8,30.02,WSW,252,1.0,6.0,90,0.00,,,0.00,WeatherCatV1.12B45,2013-07-10 07:19:00,
2013-07-10 00:24:00,54.7,51.8,30.02,West,267,4.0,8.0,90,0.00,,,0.00,WeatherCatV1.12B45,2013-07-10 07:24:00,
2013-07-10 00:29:00,54.6,52.0,30.02,SW,225,2.0,7.0,91,0.00,,,0.00,WeatherCatV1.12B45,2013-07-10 07:29:00,
2013-07-10 00:34:00,54.7,52.1,30.02,South,169,1.0,6.0,91,0.00,,,0.00,WeatherCatV1.12B45,2013-07-10 07:34:00,
2013-07-10 00:39:00,54.7,52.1,30.02,SSW,209,0.0,1.0,91,0.00,,,0.00,WeatherCatV1.12B45,2013-07-10 07:39:00,
2013-07-10 00:44:00,54.7,52.1,30.02,West,281,5.0,7.0,91,0.00,,,0.00,WeatherCatV1.12B45,2013-07-10 07:44:00,
2013-07-10 00:49:00,54.5,51.9,30.02,NW,317,3.0,6.0,91,0.00,,,0.00,WeatherCatV1.12B45,2013-07-10 07:49:00,
2013-07-10 00:54:00,54.6,52.0,30.02,WNW,283,0.0,3.0,91,0.00,,,0.00,WeatherCatV1.12B45,2013-07-10 07:54:00,
2013-07-10 00:59:00,54.5,51.9,30.02,West,272,3.0,5.0,91,0.00,,,0.00,WeatherCatV1.12B45,2013-07-10 07:59:00,
2013-07-10 01:04:00,54.6,52.0,30.02,WNW,284,1.0,2.0,91,0.00,,,0.00,WeatherCatV1.12B45,2013-07-10 08:04:00,
2013-07-10 01:09:00,54.6,52.0,30.02,West,271,4.0,4.0,91,0.00,,,0.00,WeatherCatV1.12B45,2013-07-10 08:09:00,
2013-07-10 01:14:00,54.5,51.6,30.02,WNW,286,4.0,9.0,90,0.00,,,0.00,WeatherCatV1.12B45,2013-07-10 08:14:00,
2013-07-10 01:19:00,54.2,51.6,30.01,WSW,252,3.0,5.0,91,0.00,,,0.00,WeatherCatV1.12B45,2013-07-10 08:19:00,
2013-07-10 01:24:00,54.1,51.5,30.02,WNW,287,4.0,8.0,91,0.00,,,0.00,WeatherCatV1.12B45,2013-07-10 08:24:00,
2013-07-10 01:29:00,54.1,51.8,30.01,WNW,287,4.0,5.0,92,0.00,,,0.00,WeatherCatV1.12B45,2013-07-10 08:29:00,
2013-07-10 01:34:00,54.0,51.7,30.02,West,269,3.0,9.0,92,0.00,,,0.00,WeatherCatV1.12B45,2013-07-10 08:34:00,
2013-07-10 01:39:00,53.9,51.6,30.02,WSW,249,6.0,9.0,92,0.00,,,0.00,WeatherCatV1.12B45,2013-07-10 08:39:00,
2013-07-10 01:44:00,53.8,51.5,30.02,WSW,249,9.0,11.0,92,0.00,,,0.00,WeatherCatV1.12B45,2013-07-10 08:44:00,
2013-07-10 01:49:00,53.9,51.6,30.02,WSW,249,3.0,3.0,92,0.00,,,0.00,WeatherCatV1.12B45,2013-07-10 08:49:00,
2013-07-10 01:55:00,54.0,51.7,30.01,West,279,5.0,9.0,92,0.00,,,0.00,WeatherCatV1.12B45,2013-07-10 08:55:00,
2013-07-10 02:00:00,54.0,51.7,30.01,West,279,4.0,4.0,92,0.00,,,0.00,WeatherCatV1.12B45,2013-07-10 09:00:00,
2013-07-10 02:05:00,54.0,51.7,30.01,WNW,282,0.0,3.0,92,0.00,,,0.00,WeatherCatV1.12B45,2013-07-10 09:05:00,
2013-07-10 02:10:00,54.0,51.7,30.01,NW,307,3.0,6.0,92,0.00,,,0.00,WeatherCatV1.12B45,2013-07-10 09:10:00,
2013-07-10 02:15:00,54.0,51.7,30.01,WSW,250,1.0,5.0,92,0.00,,,0.00,WeatherCatV1.12B45,2013-07-10 09:15:00,
2013-07-10 02:20:00,54.1,51.8,30.01,NW,309,3.0,9.0,92,0.00,,,0.00,WeatherCatV1.12B45,2013-07-10 09:20:00,
2013-07-10 02:25:00,54.2,51.9,30.01,NW,308,4.0,7.0,92,0.00,,,0.00,WeatherCatV1.12B45,2013-07-10 09:25:00,
2013-07-10 02:30:00,54.2,51.9,30.01,SW,226,2.0,6.0,92,0.00,,,0.00,WeatherCatV1.12B45,2013-07-10 09:30:00,
2013-07-10 02:35:00,54.3,52.0,30.01,WSW,238,1.0,4.0,92,0.00,,,0.00,WeatherCatV1.12B45,2013-07-10 09:35:00,
2013-07-10 02:40:00,54.2,51.9,30.01,West,281,2.0,5.0,92,0.00,,,0.00,WeatherCatV1.12B45,2013-07-10 09:40:00,
2013-07-10 02:45:00,54.2,51.9,30.01,West,279,4.0,4.0,92,0.00,,,0.00,WeatherCatV1.12B45,2013-07-10 09:45:00,
2013-07-10 02:50:00,54.2,51.9,30.01,NNE,24,1.0,3.0,92,0.00,,,0.00,WeatherCatV1.12B45,2013-07-10 09:50:00,
2013-07-10 02:55:00,54.4,52.1,30.01,South,184,3.0,4.0,92,0.00,,,0.00,WeatherCatV1.12B45,2013-07-10 09:55:00,
2013-07-10 03:00:00,54.4,52.1,30.01,WNW,287,6.0,7.0,92,0.00,,,0.00,WeatherCatV1.12B45,2013-07-10 10:00:00,
2013-07-10 03:05:00,54.3,52.0,30.01,WNW,294,7.0,11.0,92,0.00,,,0.00,WeatherCatV1.12B45,2013-07-10 10:05:00,
2013-07-10 03:10:00,54.2,51.9,30.01,West,281,3.0,8.0,92,0.00,,,0.00,WeatherCatV1.12B45,2013-07-10 10:10:00,
2013-07-10 03:15:00,54.1,52.1,30.01,WNW,299,7.0,10.0,93,0.00,,,0.00,WeatherCatV1.12B45,2013-07-10 10:15:00,
2013-07-10 03:20:00,54.1,52.1,30.01,WNW,296,5.0,12.0,93,0.00,,,0.00,WeatherCatV1.12B45,2013-07-10 10:20:00,
2013-07-10 03:25:00,54.1,52.1,30.01,WNW,302,4.0,7.0,93,0.00,,,0.00,WeatherCatV1.12B45,2013-07-10 10:25:00,
2013-07-10 03:30:00,54.1,52.1,30.01,West,271,1.0,4.0,93,0.00,,,0.00,WeatherCatV1.12B45,2013-07-10 10:30:00,
2013-07-10 03:35:00,54.1,52.1,30.01,WNW,300,3.0,4.0,93,0.00,,,0.00,WeatherCatV1.12B45,2013-07-10 10:35:00,
2013-07-10 03:40:00,54.3,52.3,30.00,NW,317,3.0,4.0,93,0.00,,,0.00,WeatherCatV1.12B45,2013-07-10 10:40:00,
2013-07-10 03:45:00,54.2,52.2,30.00,NNW,348,8.0,8.0,93,0.00,,,0.00,WeatherCatV1.12B45,2013-07-10 10:45:00,
2013-07-10 03:50:00,54.1,52.1,30.01,WNW,294,6.0,8.0,93,0.00,,,0.00,WeatherCatV1.12B45,2013-07-10 10:50:00,
2013-07-10 03:55:00,54.1,52.4,30.01,WNW,299,1.0,4.0,94,0.00,,,0.00,WeatherCatV1.12B45,2013-07-10 10:55:00,
2013-07-10 04:00:00,54.1,52.1,30.01,NW,306,8.0,10.0,93,0.00,,,0.00,WeatherCatV1.12B45,2013-07-10 11:00:00,
2013-07-10 04:05:00,53.9,52.2,30.01,WNW,296,9.0,10.0,94,0.00,,,0.00,WeatherCatV1.12B45,2013-07-10 11:05:00,
2013-07-10 04:10:00,53.9,52.2,30.01,West,279,7.0,13.0,94,0.00,,,0.00,WeatherCatV1.12B45,2013-07-10 11:10:00,
2013-07-10 04:15:00,53.8,52.1,30.01,South,191,6.0,10.0,94,0.00,,,0.00,WeatherCatV1.12B45,2013-07-10 11:15:00,
2013-07-10 04:20:00,53.8,52.1,30.00,West,260,6.0,15.0,94,0.00,,,0.00,WeatherCatV1.12B45,2013-07-10 11:20:00,
2013-07-10 04:25:00,53.8,52.1,30.00,WNW,298,2.0,6.0,94,0.00,,,0.00,WeatherCatV1.12B45,2013-07-10 11:25:00,
2013-07-10 04:30:00,53.8,52.1,30.00,West,273,8.0,9.0,94,0.00,,,0.00,WeatherCatV1.12B45,2013-07-10 11:30:00,
2013-07-10 04:35:00,53.8,52.1,30.01,WNW,296,8.0,12.0,94,0.00,,,0.00,WeatherCatV1.12B45,2013-07-10 11:35:00,
2013-07-10 04:40:00,53.8,52.1,30.00,WNW,298,3.0,9.0,94,0.00,,,0.00,WeatherCatV1.12B45,2013-07-10 11:40:00,
2013-07-10 04:45:00,53.8,52.1,30.00,West,270,3.0,6.0,94,0.00,,,0.00,WeatherCatV1.12B45,2013-07-10 11:45:00,
2013-07-10 04:50:00,53.9,52.2,30.00,WNW,295,6.0,6.0,94,0.00,,,0.00,WeatherCatV1.12B45,2013-07-10 11:50:00,
2013-07-10 04:55:00,54.0,52.3,30.00,NW,315,3.0,5.0,94,0.00,,,0.00,WeatherCatV1.12B45,2013-07-10 11:55:00,
2013-07-10 05:00:00,54.0,52.3,30.00,WNW,294,1.0,4.0,94,0.00,,,0.00,WeatherCatV1.12B45,2013-07-10 12:00:00,
2013-07-10 05:05:00,54.0,52.3,30.01,WNW,294,1.0,2.0,94,0.00,,,0.00,WeatherCatV1.12B45,2013-07-10 12:05:00,
2013-07-10 05:10:00,54.0,52.3,30.01,SSW,194,2.0,3.0,94,0.00,,,0.00,WeatherCatV1.12B45,2013-07-10 12:10:00,
2013-07-10 05:15:00,53.9,52.2,30.01,NW,322,3.0,3.0,94,0.00,,,0.00,WeatherCatV1.12B45,2013-07-10 12:15:00,
2013-07-10 05:20:00,53.9,51.9,30.01,SSW,213,1.0,4.0,93,0.00,,,0.00,WeatherCatV1.12B45,2013-07-10 12:20:00,
2013-07-10 05:25:00,53.9,51.9,30.01,SE,141,1.0,7.0,93,0.00,,,0.00,WeatherCatV1.12B45,2013-07-10 12:25:00,
2013-07-10 05:30:00,53.9,52.2,30.01,WNW,299,1.0,4.0,94,0.00,,,0.00,WeatherCatV1.12B45,2013-07-10 12:30:00,
2013-07-10 05:35:00,53.8,51.8,30.02,WNW,287,0.0,1.0,93,0.00,,,0.00,WeatherCatV1.12B45,2013-07-10 12:35:00,
2013-07-10 05:40:00,53.8,52.1,30.02,WNW,294,1.0,1.0,94,0.00,,,0.00,WeatherCatV1.12B45,2013-07-10 12:40:00,
2013-07-10 05:45:00,53.8,52.1,30.02,NNE,27,1.0,1.0,94,0.00,,,0.00,WeatherCatV1.12B45,2013-07-10 12:45:00,
2013-07-10 05:50:00,54.0,52.3,30.02,ENE,66,1.0,3.0,94,0.00,,,0.00,WeatherCatV1.12B45,2013-07-10 12:50:00,
2013-07-10 05:55:00,53.9,51.9,30.02,NNE,28,0.0,5.0,93,0.00,,,0.00,WeatherCatV1.12B45,2013-07-10 12:55:00,
2013-07-10 06:00:00,53.8,52.1,30.02,WNW,296,0.0,0.0,94,0.00,,,0.00,WeatherCatV1.12B45,2013-07-10 13:00:00,
2013-07-10 06:05:00,53.6,51.6,30.02,WSW,248,3.0,5.0,93,0.00,,,0.00,WeatherCatV1.12B45,2013-07-10 13:05:00,
2013-07-10 06:10:00,53.5,51.5,30.02,SE,135,0.0,1.0,93,0.00,,,0.00,WeatherCatV1.12B45,2013-07-10 13:10:00,
2013-07-10 06:15:00,53.4,51.7,30.02,WSW,252,0.0,6.0,94,0.00,,,0.00,WeatherCatV1.12B45,2013-07-10 13:15:00,
2013-07-10 06:20:00,53.5,51.8,30.02,NNE,14,6.0,6.0,94,0.00,,,0.00,WeatherCatV1.12B45,2013-07-10 13:20:00,
2013-07-10 06:25:00,53.4,51.7,30.02,ENE,71,1.0,5.0,94,0.00,,,0.00,WeatherCatV1.12B45,2013-07-10 13:25:00,
2013-07-10 06:30:00,53.4,51.7,30.02,NW,318,4.0,7.0,94,0.00,,,0.00,WeatherCatV1.12B45,2013-07-10 13:30:00,
2013-07-10 06:35:00,53.4,51.7,30.03,NW,319,0.0,6.0,94,0.00,,,0.00,WeatherCatV1.12B45,2013-07-10 13:35:00,
2013-07-10 06:40:00,53.5,51.8,30.03,East,81,1.0,5.0,94,0.00,,,0.00,WeatherCatV1.12B45,2013-07-10 13:40:00,
2013-07-10 06:45:00,53.5,52.1,30.03,NNW,336,4.0,5.0,95,0.00,,,0.00,WeatherCatV1.12B45,2013-07-10 13:45:00,
2013-07-10 06:50:00,53.5,52.1,30.02,North,0,2.0,4.0,95,0.00,,,0.00,WeatherCatV1.12B45,2013-07-10 13:50:00,
2013-07-10 06:55:00,53.5,52.1,30.03,ESE,112,2.0,2.0,95,0.00,,,0.00,WeatherCatV1.12B45,2013-07-10 13:55:00,
2013-07-10 07:00:00,53.4,52.0,30.03,NNE,30,1.0,3.0,95,0.00,,,0.00,WeatherCatV1.12B45,2013-07-10 14:00:00,
2013-07-10 07:05:00,53.4,52.0,30.03,NE,49,2.0,2.0,95,0.00,,,0.00,WeatherCatV1.12B45,2013-07-10 14:05:00,
2013-07-10 07:10:00,53.5,52.1,30.03,NNE,24,0.0,4.0,95,0.00,,,0.00,WeatherCatV1.12B45,2013-07-10 14:10:00,
2013-07-10 07:15:00,53.6,52.2,30.03,NE,36,2.0,3.0,95,0.00,,,0.00,WeatherCatV1.12B45,2013-07-10 14:15:00,
2013-07-10 07:20:00,53.6,51.9,30.03,NW,310,2.0,2.0,94,0.00,,,0.00,WeatherCatV1.12B45,2013-07-10 14:20:00,
2013-07-10 07:25:00,53.7,52.3,30.03,WNW,295,1.0,2.0,95,0.00,,,0.00,WeatherCatV1.12B45,2013-07-10 14:25:00,
2013-07-10 07:30:00,53.8,52.4,30.03,NE,46,3.0,3.0,95,0.00,,,0.00,WeatherCatV1.12B45,2013-07-10 14:30:00,
2013-07-10 07:35:00,54.1,52.7,30.03,SW,229,0.0,2.0,95,0.00,,,0.00,WeatherCatV1.12B45,2013-07-10 14:35:00,
2013-07-10 07:41:00,54.2,52.5,30.04,ENE,74,4.0,4.0,94,0.00,,,0.00,WeatherCatV1.12B45,2013-07-10 14:41:00,
2013-07-10 07:46:00,54.2,52.5,30.04,ENE,65,2.0,3.0,94,0.00,,,0.00,WeatherCatV1.12B45,2013-07-10 14:46:00,
2013-07-10 07:51:00,54.6,53.2,30.04,SE,133,1.0,3.0,95,0.00,,,0.00,WeatherCatV1.12B45,2013-07-10 14:51:00,
2013-07-10 07:56:00,54.6,52.9,30.04,East,86,2.0,3.0,94,0.00,,,0.00,WeatherCatV1.12B45,2013-07-10 14:56:00,
2013-07-10 08:01:00,54.7,53.0,30.03,ESE,123,3.0,4.0,94,0.00,,,0.00,WeatherCatV1.12B45,2013-07-10 15:01:00,
2013-07-10 08:06:00,54.9,53.2,30.03,SSE,158,2.0,2.0,94,0.00,,,0.00,WeatherCatV1.12B45,2013-07-10 15:06:00,
2013-07-10 08:11:00,55.1,53.4,30.03,ESE,121,0.0,1.0,94,0.00,,,0.00,WeatherCatV1.12B45,2013-07-10 15:11:00,
2013-07-10 08:16:00,55.5,53.8,30.03,SSE,148,1.0,1.0,94,0.00,,,0.00,WeatherCatV1.12B45,2013-07-10 15:16:00,
2013-07-10 08:21:00,55.7,54.0,30.03,ENE,65,3.0,3.0,94,0.00,,,0.00,WeatherCatV1.12B45,2013-07-10 15:21:00,
2013-07-10 08:26:00,55.9,53.9,30.03,NE,50,0.0,0.0,93,0.00,,,0.00,WeatherCatV1.12B45,2013-07-10 15:26:00,
2013-07-10 08:31:00,55.9,53.6,30.04,ESE,119,4.0,4.0,92,0.00,,,0.00,WeatherCatV1.12B45,2013-07-10 15:31:00,
2013-07-10 08:36:00,55.7,53.4,30.03,NE,53,2.0,2.0,92,0.00,,,0.00,WeatherCatV1.12B45,2013-07-10 15:36:00,
2013-07-10 08:41:00,55.9,53.6,30.03,NE,48,1.0,3.0,92,0.00,,,0.00,WeatherCatV1.12B45,2013-07-10 15:41:00,
2013-07-10 08:46:00,55.9,53.6,30.03,East,84,2.0,2.0,92,0.00,,,0.00,WeatherCatV1.12B45,2013-07-10 15:46:00,
2013-07-10 08:51:00,56.1,53.8,30.03,NNW,336,0.0,3.0,92,0.00,,,0.00,WeatherCatV1.12B45,2013-07-10 15:51:00,
2013-07-10 08:56:00,56.4,54.1,30.03,NNW,329,0.0,2.0,92,0.00,,,0.00,WeatherCatV1.12B45,2013-07-10 15:56:00,
2013-07-10 09:01:00,56.4,53.5,30.03,NW,311,2.0,5.0,90,0.00,,,0.00,WeatherCatV1.12B45,2013-07-10 16:01:00,
2013-07-10 09:06:00,56.3,53.7,30.03,NW,306,3.0,3.0,91,0.00,,,0.00,WeatherCatV1.12B45,2013-07-10 16:06:00,
2013-07-10 09:11:00,56.5,53.9,30.03,NNE,22,1.0,3.0,91,0.00,,,0.00,WeatherCatV1.12B45,2013-07-10 16:11:00,
2013-07-10 09:16:00,56.5,53.6,30.03,NW,304,1.0,5.0,90,0.00,,,0.00,WeatherCatV1.12B45,2013-07-10 16:16:00,
2013-07-10 09:21:00,56.5,53.6,30.03,NW,309,6.0,7.0,90,0.00,,,0.00,WeatherCatV1.12B45,2013-07-10 16:21:00,
2013-07-10 09:26:00,56.2,53.3,30.03,WSW,242,7.0,7.0,90,0.00,,,0.00,WeatherCatV1.12B45,2013-07-10 16:26:00,
2013-07-10 09:31:00,56.5,53.6,30.03,WNW,288,2.0,6.0,90,0.00,,,0.00,WeatherCatV1.12B45,2013-07-10 16:31:00,
2013-07-10 09:36:00,57.2,54.3,30.03,WNW,287,7.0,7.0,90,0.00,,,0.00,WeatherCatV1.12B45,2013-07-10 16:36:00,
2013-07-10 09:41:00,57.1,53.9,30.03,WNW,302,4.0,8.0,89,0.00,,,0.00,WeatherCatV1.12B45,2013-07-10 16:41:00,
2013-07-10 09:46:00,56.9,53.7,30.03,WSW,240,9.0,10.0,89,0.00,,,0.00,WeatherCatV1.12B45,2013-07-10 16:46:00,
2013-07-10 09:51:00,56.8,53.6,30.02,WNW,294,13.0,14.0,89,0.00,,,0.00,WeatherCatV1.12B45,2013-07-10 16:51:00,
2013-07-10 09:56:00,57.2,54.0,30.03,WNW,300,4.0,10.0,89,0.00,,,0.00,WeatherCatV1.12B45,2013-07-10 16:56:00,
2013-07-10 10:01:00,57.6,54.1,30.02,West,268,5.0,8.0,88,0.00,,,0.00,WeatherCatV1.12B45,2013-07-10 17:01:00,
2013-07-10 10:06:00,57.5,54.0,30.03,WNW,294,2.0,8.0,88,0.00,,,0.00,WeatherCatV1.12B45,2013-07-10 17:06:00,
2013-07-10 10:11:00,58.0,54.2,30.02,WSW,240,9.0,9.0,87,0.00,,,0.00,WeatherCatV1.12B45,2013-07-10 17:11:00,
2013-07-10 10:16:00,57.9,53.7,30.02,WNW,284,8.0,14.0,86,0.00,,,0.00,WeatherCatV1.12B45,2013-07-10 17:16:00,
2013-07-10 10:21:00,58.0,53.8,30.02,West,267,13.0,13.0,86,0.00,,,0.00,WeatherCatV1.12B45,2013-07-10 17:21:00,
2013-07-10 10:26:00,58.0,53.8,30.02,West,262,9.0,13.0,86,0.00,,,0.00,WeatherCatV1.12B45,2013-07-10 17:26:00,
2013-07-10 10:31:00,58.1,54.2,30.02,NW,309,4.0,7.0,87,0.00,,,0.00,WeatherCatV1.12B45,2013-07-10 17:31:00,
2013-07-10 10:36:00,58.9,54.4,30.02,WNW,296,7.0,8.0,85,0.00,,,0.00,WeatherCatV1.12B45,2013-07-10 17:36:00,
2013-07-10 10:41:00,59.9,55.4,30.01,WSW,248,4.0,4.0,85,0.00,,,0.00,WeatherCatV1.12B45,2013-07-10 17:41:00,
2013-07-10 10:46:00,60.1,54.2,30.01,ENE,60,3.0,7.0,81,0.00,,,0.00,WeatherCatV1.12B45,2013-07-10 17:46:00,
2013-07-10 10:51:00,61.2,55.7,30.02,SW,234,2.0,3.0,82,0.00,,,0.00,WeatherCatV1.12B45,2013-07-10 17:51:00,
2013-07-10 10:56:00,61.8,54.9,30.01,SE,144,3.0,6.0,78,0.00,,,0.00,WeatherCatV1.12B45,2013-07-10 17:56:00,
2013-07-10 11:01:00,62.6,56.0,30.02,SSE,161,3.0,4.0,79,0.00,,,0.00,WeatherCatV1.12B45,2013-07-10 18:01:00,
2013-07-10 11:06:00,63.3,55.6,30.02,West,281,5.0,9.0,76,0.00,,,0.00,WeatherCatV1.12B45,2013-07-10 18:06:00,
2013-07-10 11:11:00,62.3,55.0,30.02,WSW,248,12.0,12.0,77,0.00,,,0.00,WeatherCatV1.12B45,2013-07-10 18:11:00,
2013-07-10 11:16:00,61.5,54.9,30.01,WSW,249,7.0,10.0,79,0.00,,,0.00,WeatherCatV1.12B45,2013-07-10 18:16:00,
2013-07-10 11:21:00,61.6,55.0,30.01,West,273,4.0,8.0,79,0.00,,,0.00,WeatherCatV1.12B45,2013-07-10 18:21:00,
2013-07-10 11:26:00,62.5,55.5,30.01,West,279,3.0,5.0,78,0.00,,,0.00,WeatherCatV1.12B45,2013-07-10 18:26:00,
2013-07-10 11:31:00,62.3,55.3,30.01,WNW,296,8.0,11.0,78,0.00,,,0.00,WeatherCatV1.12B45,2013-07-10 18:31:00,
2013-07-10 11:36:00,62.5,55.5,30.02,NW,319,0.0,3.0,78,0.00,,,0.00,WeatherCatV1.12B45,2013-07-10 18:36:00,
2013-07-10 11:41:00,62.5,55.5,30.02,East,84,2.0,9.0,78,0.00,,,0.00,WeatherCatV1.12B45,2013-07-10 18:41:00,
2013-07-10 11:46:00,62.3,55.0,30.02,West,262,10.0,13.0,77,0.00,,,0.00,WeatherCatV1.12B45,2013-07-10 18:46:00,
2013-07-10 11:51:00,61.2,54.3,30.02,WNW,296,14.0,16.0,78,0.00,,,0.00,WeatherCatV1.12B45,2013-07-10 18:51:00,
2013-07-10 11:56:00,60.4,54.5,30.02,West,264,10.0,14.0,81,0.00,,,0.00,WeatherCatV1.12B45,2013-07-10 18:56:00,
2013-07-10 12:02:00,60.4,54.5,30.02,WNW,287,4.0,12.0,81,0.00,,,0.00,WeatherCatV1.12B45,2013-07-10 19:02:00,
2013-07-10 12:07:00,60.6,54.7,30.02,WNW,284,9.0,13.0,81,0.00,,,0.00,WeatherCatV1.12B45,2013-07-10 19:07:00,
2013-07-10 12:12:00,60.3,54.4,30.02,WNW,296,4.0,15.0,81,0.00,,,0.00,WeatherCatV1.12B45,2013-07-10 19:12:00,
2013-07-10 12:17:00,60.9,55.0,30.01,WSW,244,1.0,10.0,81,0.00,,,0.00,WeatherCatV1.12B45,2013-07-10 19:17:00,
2013-07-10 12:22:00,61.7,55.1,30.02,West,277,6.0,6.0,79,0.00,,,0.00,WeatherCatV1.12B45,2013-07-10 19:22:00,
2013-07-10 12:27:00,61.5,54.9,30.02,NW,310,9.0,11.0,79,0.00,,,0.00,WeatherCatV1.12B45,2013-07-10 19:27:00,
2013-07-10 12:32:00,60.8,54.9,30.01,WSW,240,9.0,15.0,81,0.00,,,0.00,WeatherCatV1.12B45,2013-07-10 19:32:00,
2013-07-10 12:37:00,60.8,54.6,30.01,WNW,287,8.0,17.0,80,0.00,,,0.00,WeatherCatV1.12B45,2013-07-10 19:37:00,
2013-07-10 12:42:00,60.8,54.6,30.01,WNW,287,4.0,17.0,80,0.00,,,0.00,WeatherCatV1.12B45,2013-07-10 19:42:00,
2013-07-10 12:47:00,61.4,54.8,30.01,NNW,336,0.0,7.0,79,0.00,,,0.00,WeatherCatV1.12B45,2013-07-10 19:47:00,
2013-07-10 12:52:00,62.9,55.9,30.01,SSW,193,3.0,4.0,78,0.00,,,0.00,WeatherCatV1.12B45,2013-07-10 19:52:00,
2013-07-10 12:57:00,63.7,55.6,30.01,SSE,148,1.0,10.0,75,0.00,,,0.00,WeatherCatV1.12B45,2013-07-10 19:57:00,
2013-07-10 13:02:00,64.8,55.9,30.01,SW,229,6.0,7.0,73,0.00,,,0.00,WeatherCatV1.12B45,2013-07-10 20:02:00,
2013-07-10 13:07:00,64.0,54.8,30.00,WNW,303,7.0,16.0,72,0.00,,,0.00,WeatherCatV1.12B45,2013-07-10 20:07:00,
2013-07-10 13:12:00,63.7,55.3,30.01,NW,317,4.0,6.0,74,0.00,,,0.00,WeatherCatV1.12B45,2013-07-10 20:12:00,
2013-07-10 13:17:00,62.8,54.4,30.01,West,275,6.0,16.0,74,0.00,,,0.00,WeatherCatV1.12B45,2013-07-10 20:17:00,
2013-07-10 13:22:00,62.1,54.1,30.00,WNW,298,7.0,17.0,75,0.00,,,0.00,WeatherCatV1.12B45,2013-07-10 20:22:00,
2013-07-10 13:27:00,62.3,54.6,30.00,West,272,8.0,14.0,76,0.00,,,0.00,WeatherCatV1.12B45,2013-07-10 20:27:00,
2013-07-10 13:32:00,63.3,55.2,30.00,West,261,7.0,8.0,75,0.00,,,0.00,WeatherCatV1.12B45,2013-07-10 20:32:00,
2013-07-10 13:37:00,63.9,55.1,30.00,WSW,254,11.0,14.0,73,0.00,,,0.00,WeatherCatV1.12B45,2013-07-10 20:37:00,
2013-07-10 13:42:00,64.2,55.4,30.00,SSW,206,7.0,11.0,73,0.00,,,0.00,WeatherCatV1.12B45,2013-07-10 20:42:00,
2013-07-10 13:47:00,65.3,56.0,29.99,SE,140,2.0,8.0,72,0.00,,,0.00,WeatherCatV1.12B45,2013-07-10 20:47:00,
2013-07-10 13:52:00,66.8,56.7,29.99,WSW,246,6.0,6.0,70,0.00,,,0.00,WeatherCatV1.12B45,2013-07-10 20:52:00,
2013-07-10 13:57:00,68.3,56.5,29.99,North,5,7.0,12.0,66,0.00,,,0.00,WeatherCatV1.12B45,2013-07-10 20:57:00,
2013-07-10 14:02:00,67.0,55.7,29.99,West,279,6.0,11.0,67,0.00,,,0.00,WeatherCatV1.12B45,2013-07-10 21:02:00,
2013-07-10 14:07:00,66.5,55.6,29.99,West,273,16.0,16.0,68,0.00,,,0.00,WeatherCatV1.12B45,2013-07-10 21:07:00,
2013-07-10 14:12:00,65.8,55.7,29.99,WNW,291,8.0,11.0,70,0.00,,,0.00,WeatherCatV1.12B45,2013-07-10 21:12:00,
2013-07-10 14:17:00,65.1,55.8,29.99,West,279,7.0,14.0,72,0.00,,,0.00,WeatherCatV1.12B45,2013-07-10 21:17:00,
2013-07-10 14:22:00,64.9,56.0,29.99,West,271,13.0,13.0,73,0.00,,,0.00,WeatherCatV1.12B45,2013-07-10 21:22:00,
2013-07-10 14:27:00,64.2,55.7,29.99,West,280,11.0,15.0,74,0.00,,,0.00,WeatherCatV1.12B45,2013-07-10 21:27:00,
2013-07-10 14:32:00,63.4,55.3,29.99,WSW,256,16.0,16.0,75,0.00,,,0.00,WeatherCatV1.12B45,2013-07-10 21:32:00,
2013-07-10 14:37:00,62.4,54.7,29.99,NW,306,7.0,18.0,76,0.00,,,0.00,WeatherCatV1.12B45,2013-07-10 21:37:00,
2013-07-10 14:42:00,62.3,55.0,29.99,WNW,286,11.0,13.0,77,0.00,,,0.00,WeatherCatV1.12B45,2013-07-10 21:42:00,
2013-07-10 14:47:00,62.0,54.7,29.99,WNW,298,8.0,18.0,77,0.00,,,0.00,WeatherCatV1.12B45,2013-07-10 21:47:00,
2013-07-10 14:52:00,61.9,55.0,29.99,WNW,290,11.0,16.0,78,0.00,,,0.00,WeatherCatV1.12B45,2013-07-10 21:52:00,
2013-07-10 14:57:00,61.9,55.0,29.99,WSW,239,6.0,15.0,78,0.00,,,0.00,WeatherCatV1.12B45,2013-07-10 21:57:00,
2013-07-10 15:02:00,62.8,55.5,29.99,WNW,296,12.0,12.0,77,0.00,,,0.00,WeatherCatV1.12B45,2013-07-10 22:02:00,
2013-07-10 15:07:00,62.6,54.9,29.98,South,182,5.0,19.0,76,0.00,,,0.00,WeatherCatV1.12B45,2013-07-10 22:07:00,
2013-07-10 15:12:00,63.0,55.3,29.99,NW,307,6.0,14.0,76,0.00,,,0.00,WeatherCatV1.12B45,2013-07-10 22:12:00,
2013-07-10 15:17:00,63.1,55.4,29.99,East,80,6.0,9.0,76,0.00,,,0.00,WeatherCatV1.12B45,2013-07-10 22:17:00,
2013-07-10 15:22:00,63.6,55.5,29.98,WSW,248,10.0,15.0,75,0.00,,,0.00,WeatherCatV1.12B45,2013-07-10 22:22:00,
2013-07-10 15:27:00,63.6,55.5,29.98,SSE,164,4.0,8.0,75,0.00,,,0.00,WeatherCatV1.12B45,2013-07-10 22:27:00,
2013-07-10 15:32:00,64.0,55.9,29.98,West,259,6.0,11.0,75,0.00,,,0.00,WeatherCatV1.12B45,2013-07-10 22:32:00,
2013-07-10 15:37:00,64.1,55.6,29.98,West,277,3.0,13.0,74,0.00,,,0.00,WeatherCatV1.12B45,2013-07-10 22:37:00,
2013-07-10 15:42:00,63.7,55.3,29.98,WNW,299,4.0,19.0,74,0.00,,,0.00,WeatherCatV1.12B45,2013-07-10 22:42:00,
2013-07-10 15:47:00,63.5,55.8,29.97,West,268,6.0,14.0,76,0.00,,,0.00,WeatherCatV1.12B45,2013-07-10 22:47:00,
2013-07-10 15:52:00,63.6,55.9,29.97,WSW,249,4.0,13.0,76,0.00,,,0.00,WeatherCatV1.12B45,2013-07-10 22:52:00,
2013-07-10 15:58:00,64.5,56.0,29.97,NW,323,2.0,8.0,74,0.00,,,0.00,WeatherCatV1.12B45,2013-07-10 22:58:00,
2013-07-10 16:03:00,64.7,55.8,29.96,NNW,331,10.0,14.0,73,0.00,,,0.00,WeatherCatV1.12B45,2013-07-10 23:03:00,
2013-07-10 16:08:00,64.5,56.0,29.97,SSW,194,0.0,2.0,74,0.00,,,0.00,WeatherCatV1.12B45,2013-07-10 23:08:00,
2013-07-10 16:13:00,64.7,56.2,29.96,NE,45,5.0,7.0,74,0.00,,,0.00,WeatherCatV1.12B45,2013-07-10 23:13:00,
2013-07-10 16:18:00,64.3,55.5,29.96,WSW,257,12.0,12.0,73,0.00,,,0.00,WeatherCatV1.12B45,2013-07-10 23:18:00,
2013-07-10 16:23:00,63.7,54.9,29.97,NE,50,7.0,16.0,73,0.00,,,0.00,WeatherCatV1.12B45,2013-07-10 23:23:00,
2013-07-10 16:28:00,63.2,55.1,29.97,ENE,62,9.0,9.0,75,0.00,,,0.00,WeatherCatV1.12B45,2013-07-10 23:28:00,
2013-07-10 16:33:00,63.0,55.3,29.96,NE,50,4.0,8.0,76,0.00,,,0.00,WeatherCatV1.12B45,2013-07-10 23:33:00,
2013-07-10 16:38:00,62.4,54.7,29.96,North,0,10.0,19.0,76,0.00,,,0.00,WeatherCatV1.12B45,2013-07-10 23:38:00,
2013-07-10 16:43:00,61.5,54.6,29.96,NW,322,13.0,18.0,78,0.00,,,0.00,WeatherCatV1.12B45,2013-07-10 23:43:00,
2013-07-10 16:48:00,61.4,54.8,29.96,NW,305,15.0,20.0,79,0.00,,,0.00,WeatherCatV1.12B45,2013-07-10 23:48:00,
2013-07-10 16:53:00,60.5,54.6,29.97,NW,304,11.0,15.0,81,0.00,,,0.00,WeatherCatV1.12B45,2013-07-10 23:53:00,
2013-07-10 16:58:00,60.3,54.4,29.96,WNW,298,7.0,16.0,81,0.00,,,0.00,WeatherCatV1.12B45,2013-07-10 23:58:00,
2013-07-10 17:03:00,60.0,54.5,29.97,WNW,288,4.0,8.0,82,0.00,,,0.00,WeatherCatV1.12B45,2013-07-11 00:03:00,
2013-07-10 17:08:00,60.2,54.7,29.97,ESE,118,4.0,6.0,82,0.00,,,0.00,WeatherCatV1.12B45,2013-07-11 00:08:00,
2013-07-10 17:13:00,60.8,54.9,29.96,NNW,336,12.0,12.0,81,0.00,,,0.00,WeatherCatV1.12B45,2013-07-11 00:13:00,
2013-07-10 17:18:00,60.8,54.9,29.97,NNW,330,7.0,11.0,81,0.00,,,0.00,WeatherCatV1.12B45,2013-07-11 00:18:00,
2013-07-10 17:23:00,60.6,54.7,29.97,NNW,330,4.0,8.0,81,0.00,,,0.00,WeatherCatV1.12B45,2013-07-11 00:23:00,
2013-07-10 17:28:00,60.2,54.7,29.97,North,0,5.0,10.0,82,0.00,,,0.00,WeatherCatV1.12B45,2013-07-11 00:28:00,
2013-07-10 17:33:00,59.6,54.4,29.97,ENE,61,3.0,8.0,83,0.00,,,0.00,WeatherCatV1.12B45,2013-07-11 00:33:00,
2013-07-10 17:38:00,59.2,54.7,29.97,NNE,16,5.0,8.0,85,0.00,,,0.00,WeatherCatV1.12B45,2013-07-11 00:38:00,
2013-07-10 17:43:00,58.9,54.4,29.97,NW,304,4.0,7.0,85,0.00,,,0.00,WeatherCatV1.12B45,2013-07-11 00:43:00,
2013-07-10 17:48:00,58.7,54.5,29.97,East,83,3.0,6.0,86,0.00,,,0.00,WeatherCatV1.12B45,2013-07-11 00:48:00,
2013-07-10 17:53:00,58.4,53.9,29.97,NW,322,3.0,5.0,85,0.00,,,0.00,WeatherCatV1.12B45,2013-07-11 00:53:00,
2013-07-10 17:58:00,58.4,54.2,29.97,West,277,4.0,6.0,86,0.00,,,0.00,WeatherCatV1.12B45,2013-07-11 00:58:00,
2013-07-10 18:03:00,58.3,54.1,29.97,NW,314,3.0,7.0,86,0.00,,,0.00,WeatherCatV1.12B45,2013-07-11 01:03:00,
2013-07-10 18:08:00,58.2,54.0,29.96,ENE,62,3.0,8.0,86,0.00,,,0.00,WeatherCatV1.12B45,2013-07-11 01:08:00,
2013-07-10 18:13:00,58.1,54.2,29.96,NE,34,5.0,9.0,87,0.00,,,0.00,WeatherCatV1.12B45,2013-07-11 01:13:00,
2013-07-10 18:18:00,58.0,54.2,29.97,NNE,27,11.0,12.0,87,0.00,,,0.00,WeatherCatV1.12B45,2013-07-11 01:18:00,
2013-07-10 18:23:00,57.6,53.8,29.96,NNW,342,5.0,8.0,87,0.00,,,0.00,WeatherCatV1.12B45,2013-07-11 01:23:00,
2013-07-10 18:28:00,57.4,53.6,29.96,NNE,20,7.0,9.0,87,0.00,,,0.00,WeatherCatV1.12B45,2013-07-11 01:28:00,
2013-07-10 18:33:00,57.4,53.9,29.96,North,349,4.0,4.0,88,0.00,,,0.00,WeatherCatV1.12B45,2013-07-11 01:33:00,
2013-07-10 18:38:00,57.4,53.9,29.96,West,260,0.0,5.0,88,0.00,,,0.00,WeatherCatV1.12B45,2013-07-11 01:38:00,
2013-07-10 18:43:00,57.2,53.7,29.96,WNW,290,1.0,4.0,88,0.00,,,0.00,WeatherCatV1.12B45,2013-07-11 01:43:00,
2013-07-10 18:48:00,57.0,53.5,29.96,NE,34,4.0,8.0,88,0.00,,,0.00,WeatherCatV1.12B45,2013-07-11 01:48:00,
2013-07-10 18:53:00,56.6,53.1,29.96,WNW,294,1.0,4.0,88,0.00,,,0.00,WeatherCatV1.12B45,2013-07-11 01:53:00,
2013-07-10 18:58:00,56.4,53.2,29.96,NE,53,6.0,12.0,89,0.00,,,0.00,WeatherCatV1.12B45,2013-07-11 01:58:00,
2013-07-10 19:03:00,56.3,53.1,29.96,NNE,15,4.0,9.0,89,0.00,,,0.00,WeatherCatV1.12B45,2013-07-11 02:03:00,
2013-07-10 19:08:00,56.3,53.1,29.96,WNW,296,2.0,8.0,89,0.00,,,0.00,WeatherCatV1.12B45,2013-07-11 02:08:00,
2013-07-10 19:13:00,55.9,52.7,29.96,NNW,329,8.0,10.0,89,0.00,,,0.00,WeatherCatV1.12B45,2013-07-11 02:13:00,
2013-07-10 19:18:00,56.1,52.9,29.95,SW,227,4.0,16.0,89,0.00,,,0.00,WeatherCatV1.12B45,2013-07-11 02:18:00,
2013-07-10 19:23:00,56.0,52.8,29.95,WNW,294,6.0,12.0,89,0.00,,,0.00,WeatherCatV1.12B45,2013-07-11 02:23:00,
2013-07-10 19:28:00,56.1,52.6,29.96,West,271,5.0,8.0,88,0.00,,,0.00,WeatherCatV1.12B45,2013-07-11 02:28:00,
2013-07-10 19:33:00,56.0,52.5,29.97,NW,314,10.0,10.0,88,0.00,,,0.00,WeatherCatV1.12B45,2013-07-11 02:33:00,
2013-07-10 19:38:00,55.9,52.7,29.96,SW,236,9.0,13.0,89,0.00,,,0.00,WeatherCatV1.12B45,2013-07-11 02:38:00,
2013-07-10 19:43:00,55.6,52.4,29.96,WNW,284,2.0,11.0,89,0.00,,,0.00,WeatherCatV1.12B45,2013-07-11 02:43:00,
2013-07-10 19:48:00,55.6,52.7,29.97,SE,132,0.0,1.0,90,0.00,,,0.00,WeatherCatV1.12B45,2013-07-11 02:48:00,
2013-07-10 19:53:00,55.5,52.6,29.97,South,186,0.0,9.0,90,0.00,,,0.00,WeatherCatV1.12B45,2013-07-11 02:53:00,
2013-07-10 19:58:00,55.4,52.5,29.96,NNE,28,3.0,11.0,90,0.00,,,0.00,WeatherCatV1.12B45,2013-07-11 02:58:00,
2013-07-10 20:03:00,55.2,52.3,29.97,SW,223,4.0,5.0,90,0.00,,,0.00,WeatherCatV1.12B45,2013-07-11 03:03:00,
2013-07-10 20:08:00,55.1,52.2,29.97,NW,311,4.0,5.0,90,0.00,,,0.00,WeatherCatV1.12B45,2013-07-11 03:08:00,
2013-07-10 20:13:00,54.9,52.3,29.97,WNW,286,3.0,17.0,91,0.00,,,0.00,WeatherCatV1.12B45,2013-07-11 03:13:00,
2013-07-10 20:18:00,54.7,52.1,29.97,West,259,11.0,14.0,91,0.00,,,0.00,WeatherCatV1.12B45,2013-07-11 03:18:00,
2013-07-10 20:23:00,54.5,51.9,29.97,WSW,242,12.0,14.0,91,0.00,,,0.00,WeatherCatV1.12B45,2013-07-11 03:23:00,
2013-07-10 20:28:00,54.3,52.0,29.97,WNW,298,9.0,12.0,92,0.00,,,0.00,WeatherCatV1.12B45,2013-07-11 03:28:00,
2013-07-10 20:33:00,54.2,51.9,29.97,ENE,69,1.0,7.0,92,0.00,,,0.00,WeatherCatV1.12B45,2013-07-11 03:33:00,
2013-07-10 20:38:00,54.1,51.8,29.97,WNW,302,5.0,15.0,92,0.00,,,0.00,WeatherCatV1.12B45,2013-07-11 03:38:00,
2013-07-10 20:43:00,53.9,51.6,29.98,WNW,283,2.0,16.0,92,0.00,,,0.00,WeatherCatV1.12B45,2013-07-11 03:43:00,
2013-07-10 20:48:00,53.8,51.5,29.97,West,271,6.0,8.0,92,0.00,,,0.00,WeatherCatV1.12B45,2013-07-11 03:48:00,
2013-07-10 20:53:00,53.9,51.9,29.97,West,272,2.0,7.0,93,0.00,,,0.00,WeatherCatV1.12B45,2013-07-11 03:53:00,
2013-07-10 20:58:00,53.9,51.9,29.98,WNW,296,6.0,6.0,93,0.00,,,0.00,WeatherCatV1.12B45,2013-07-11 03:58:00,
2013-07-10 21:02:00,53.8,51.8,29.98,West,273,2.0,5.0,93,0.00,,,0.00,WeatherCatV1.12B45,2013-07-11 04:02:00,
2013-07-10 21:03:00,53.8,51.8,29.98,West,261,12.0,12.0,93,0.00,,,0.00,WeatherCatV1.12B45,2013-07-11 04:03:00,
2013-07-10 21:04:00,53.8,51.8,29.98,NW,315,3.0,12.0,93,0.00,,,0.00,WeatherCatV1.12B45,2013-07-11 04:04:00,
2013-07-10 21:05:00,53.8,51.8,29.98,WNW,294,4.0,12.0,93,0.00,,,0.00,WeatherCatV1.12B45,2013-07-11 04:05:00,
2013-07-10 21:06:00,53.8,51.8,29.98,NNW,345,2.0,6.0,93,0.00,,,0.00,WeatherCatV1.12B45,2013-07-11 04:06:00,
2013-07-10 21:11:00,53.7,51.7,29.98,SW,236,1.0,4.0,93,0.00,,,0.00,WeatherCatV1.12B45,2013-07-11 04:11:00,
2013-07-10 21:16:00,53.7,52.0,29.98,East,81,6.0,6.0,94,0.00,,,0.00,WeatherCatV1.12B45,2013-07-11 04:16:00,
2013-07-10 21:21:00,53.7,51.7,29.98,WSW,249,1.0,10.0,93,0.00,,,0.00,WeatherCatV1.12B45,2013-07-11 04:21:00,
2013-07-10 21:26:00,53.6,51.9,29.98,WNW,284,5.0,9.0,94,0.00,,,0.00,WeatherCatV1.12B45,2013-07-11 04:26:00,
2013-07-10 21:31:00,53.6,51.9,29.98,ESE,105,1.0,7.0,94,0.00,,,0.00,WeatherCatV1.12B45,2013-07-11 04:31:00,
2013-07-10 21:36:00,53.5,51.5,29.99,WSW,244,3.0,10.0,93,0.00,,,0.00,WeatherCatV1.12B45,2013-07-11 04:36:00,
2013-07-10 21:41:00,53.4,51.7,29.99,SSE,159,1.0,4.0,94,0.00,,,0.00,WeatherCatV1.12B45,2013-07-11 04:41:00,
2013-07-10 21:46:00,53.5,51.8,29.99,WSW,237,5.0,5.0,94,0.00,,,0.00,WeatherCatV1.12B45,2013-07-11 04:46:00,
2013-07-10 21:51:00,53.4,51.4,29.99,WNW,296,9.0,10.0,93,0.00,,,0.00,WeatherCatV1.12B45,2013-07-11 04:51:00,
2013-07-10 21:56:00,53.4,51.7,29.99,West,277,4.0,5.0,94,0.00,,,0.00,WeatherCatV1.12B45,2013-07-11 04:56:00,
2013-07-10 22:01:00,53.5,51.8,30.00,WSW,238,0.0,1.0,94,0.00,,,0.00,WeatherCatV1.12B45,2013-07-11 05:01:00,
2013-07-10 22:06:00,53.5,51.8,29.99,SE,137,2.0,2.0,94,0.00,,,0.00,WeatherCatV1.12B45,2013-07-11 05:06:00,
2013-07-10 22:11:00,53.5,51.8,29.99,NNE,13,2.0,2.0,94,0.00,,,0.00,WeatherCatV1.12B45,2013-07-11 05:11:00,
2013-07-10 22:16:00,53.6,51.9,29.99,West,269,5.0,10.0,94,0.00,,,0.00,WeatherCatV1.12B45,2013-07-11 05:16:00,
2013-07-10 22:21:00,53.6,51.9,29.99,West,273,4.0,6.0,94,0.00,,,0.00,WeatherCatV1.12B45,2013-07-11 05:21:00,
2013-07-10 22:26:00,53.4,51.7,29.99,West,281,7.0,12.0,94,0.00,,,0.00,WeatherCatV1.12B45,2013-07-11 05:26:00,
2013-07-10 22:31:00,53.5,51.8,30.00,West,259,11.0,11.0,94,0.00,,,0.00,WeatherCatV1.12B45,2013-07-11 05:31:00,
2013-07-10 22:36:00,53.5,51.8,30.00,NW,318,5.0,9.0,94,0.00,,,0.00,WeatherCatV1.12B45,2013-07-11 05:36:00,
2013-07-10 22:41:00,53.5,51.8,30.00,SW,234,14.0,14.0,94,0.00,,,0.00,WeatherCatV1.12B45,2013-07-11 05:41:00,
2013-07-10 22:46:00,53.5,51.8,30.00,West,267,9.0,13.0,94,0.00,,,0.00,WeatherCatV1.12B45,2013-07-11 05:46:00,
2013-07-10 22:51:00,53.6,51.9,30.00,SW,217,3.0,7.0,94,0.00,,,0.00,WeatherCatV1.12B45,2013-07-11 05:51:00,
2013-07-10 22:56:00,53.6,51.9,30.00,SSE,151,4.0,9.0,94,0.00,,,0.00,WeatherCatV1.12B45,2013-07-11 05:56:00,
2013-07-10 23:01:00,53.7,52.3,30.00,NE,54,3.0,3.0,95,0.00,,,0.00,WeatherCatV1.12B45,2013-07-11 06:01:00,
2013-07-10 23:06:00,53.5,51.8,29.99,NE,49,3.0,7.0,94,0.00,,,0.00,WeatherCatV1.12B45,2013-07-11 06:06:00,
2013-07-10 23:11:00,53.6,51.9,30.00,ENE,76,2.0,9.0,94,0.00,,,0.00,WeatherCatV1.12B45,2013-07-11 06:11:00,
2013-07-10 23:16:00,53.6,51.9,30.00,SE,146,3.0,9.0,94,0.00,,,0.00,WeatherCatV1.12B45,2013-07-11 06:16:00,
2013-07-10 23:21:00,53.6,51.9,30.00,WNW,302,8.0,8.0,94,0.00,,,0.00,WeatherCatV1.12B45,2013-07-11 06:21:00,
2013-07-10 23:26:00,53.7,52.0,30.00,ENE,61,4.0,5.0,94,0.00,,,0.00,WeatherCatV1.12B45,2013-07-11 06:26:00,
2013-07-10 23:31:00,53.7,52.0,30.00,WSW,249,4.0,11.0,94,0.00,,,0.00,WeatherCatV1.12B45,2013-07-11 06:31:00,
2013-07-10 23:36:00,53.7,52.0,30.00,NW,321,2.0,5.0,94,0.00,,,0.00,WeatherCatV1.12B45,2013-07-11 06:36:00,
2013-07-10 23:41:00,53.8,52.1,30.00,West,267,1.0,9.0,94,0.00,,,0.00,WeatherCatV1.12B45,2013-07-11 06:41:00,
2013-07-10 23:46:00,53.8,52.1,30.00,NE,54,3.0,5.0,94,0.00,,,0.00,WeatherCatV1.12B45,2013-07-11 06:46:00,
2013-07-10 23:51:00,53.8,52.1,30.00,East,86,1.0,4.0,94,0.00,,,0.00,WeatherCatV1.12B45,2013-07-11 06:51:00,
2013-07-10 23:56:00,53.9,52.2,29.99,WNW,287,4.0,11.0,94,0.00,,,0.00,WeatherCatV1.12B45,2013-07-11 06:56:00,